Terminal Aerodrome Forecast
Issued by NWS Cleveland, OH

Home | Current Version | Previous Version | Graphics & Text | Print | Product List | Glossary On
Versions: 1 2 3 4 5 6 7 8 9 10 11 12 13 14 15 16 17 18 19
000
FTUS41 KCLE 100600 CCA
TAFMFD
TAF COR
KMFD 100604Z 1006/1106 33003KT 6SM BR SCT100
      TEMPO 1006/1009 2SM BR
     FM100900 VRB03KT 4SM BR SKC
     FM101400 02006KT P6SM SCT040=

USA.gov is the U.S. government's official web portal to all federal, state and local government web resources and services.